sensor_id;sensor_type;location;lat;lon;timestamp;temperature;humidity
17968;DHT22;9109;48.050;11.696;2023-01-06T04:48:08;6.20;99.90
17968;DHT22;9109;48.050;11.696;2023-01-06T04:51:10;6.10;99.90
17968;DHT22;9109;48.050;11.696;2023-01-06T04:54:12;6.10;99.90
17968;DHT22;9109;48.050;11.696;2023-01-06T04:57:14;6.10;99.90
17968;DHT22;9109;48.050;11.696;2023-01-06T05:00:16;6.00;99.90
17968;DHT22;9109;48.050;11.696;2023-01-06T05:03:20;5.90;99.90
17968;DHT22;9109;48.050;11.696;2023-01-06T05:06:22;5.90;99.90
17968;DHT22;9109;48.050;11.696;2023-01-06T05:09:24;5.90;99.90
17968;DHT22;9109;48.050;11.696;2023-01-06T05:12:26;6.00;99.90
17968;DHT22;9109;48.050;11.696;2023-01-06T05:15:29;5.90;99.90
17968;DHT22;9109;48.050;11.696;2023-01-06T05:18:32;5.80;99.90
17968;DHT22;9109;48.050;11.696;2023-01-06T05:21:34;5.90;99.90
17968;DHT22;9109;48.050;11.696;2023-01-06T05:24:36;5.80;99.90
17968;DHT22;9109;48.050;11.696;2023-01-06T05:27:38;5.80;99.90
17968;DHT22;9109;48.050;11.696;2023-01-06T05:30:40;5.70;99.90
17968;DHT22;9109;48.050;11.696;2023-01-06T05:33:43;5.70;99.90
17968;DHT22;9109;48.050;11.696;2023-01-06T05:36:45;5.70;99.90
17968;DHT22;9109;48.050;11.696;2023-01-06T05:39:47;5.50;99.90
17968;DHT22;9109;48.050;11.696;2023-01-06T05:42:52;5.50;99.90
17968;DHT22;9109;48.050;11.696;2023-01-06T05:45:56;5.50;99.90
17968;DHT22;9109;48.050;11.696;2023-01-06T05:49:01;5.60;99.90
17968;DHT22;9109;48.050;11.696;2023-01-06T05:52:03;5.50;99.90
17968;DHT22;9109;48.050;11.696;2023-01-06T05:55:07;5.40;99.90
17968;DHT22;9109;48.050;11.696;2023-01-06T05:58:09;5.50;99.90
17968;DHT22;9109;48.050;11.696;2023-01-06T06:01:15;5.50;99.90
17968;DHT22;9109;48.050;11.696;2023-01-06T06:04:21;5.30;99.90
17968;DHT22;9109;48.050;11.696;2023-01-06T06:07:23;5.30;99.90
17968;DHT22;9109;48.050;11.696;2023-01-06T06:10:25;5.40;99.90
17968;DHT22;9109;48.050;11.696;2023-01-06T06:13:27;5.30;99.90
17968;DHT22;9109;48.050;11.696;2023-01-06T06:16:29;5.20;99.90
17968;DHT22;9109;48.050;11.696;2023-01-06T06:19:32;5.30;99.90
17968;DHT22;9109;48.050;11.696;2023-01-06T06:22:34;5.20;99.90
17968;DHT22;9109;48.050;11.696;2023-01-06T06:25:40;5.20;99.90
17968;DHT22;9109;48.050;11.696;2023-01-06T06:28:42;5.10;99.90
17968;DHT22;9109;48.050;11.696;2023-01-06T06:31:44;5.10;99.90
17968;DHT22;9109;48.050;11.696;2023-01-06T06:34:47;5.10;99.90
17968;DHT22;9109;48.050;11.696;2023-01-06T06:41:42;5.10;99.90
17968;DHT22;9109;48.050;11.696;2023-01-06T06:44:44;5.10;99.90
17968;DHT22;9109;48.050;11.696;2023-01-06T06:47:46;5.10;99.90
17968;DHT22;9109;48.050;11.696;2023-01-06T06:50:56;5.00;99.90
17968;DHT22;9109;48.050;11.696;2023-01-06T06:53:58;5.00;99.90
17968;DHT22;9109;48.050;11.696;2023-01-06T06:57:00;4.90;99.90
17968;DHT22;9109;48.050;11.696;2023-01-06T07:00:03;5.00;99.90
17968;DHT22;9109;48.050;11.696;2023-01-06T07:03:05;5.00;99.90
17968;DHT22;9109;48.050;11.696;2023-01-06T07:06:10;4.90;99.90
17968;DHT22;9109;48.050;11.696;2023-01-06T07:09:13;4.90;99.90
17968;DHT22;9109;48.050;11.696;2023-01-06T07:12:15;4.90;99.90
17968;DHT22;9109;48.050;11.696;2023-01-06T07:15:17;4.90;99.90
17968;DHT22;9109;48.050;11.696;2023-01-06T07:18:19;4.90;99.90
17968;DHT22;9109;48.050;11.696;2023-01-06T07:21:23;4.90;99.90
17968;DHT22;9109;48.050;11.696;2023-01-06T07:24:25;4.90;99.90
17968;DHT22;9109;48.050;11.696;2023-01-06T07:27:29;4.90;99.90
17968;DHT22;9109;48.050;11.696;2023-01-06T07:30:32;4.90;99.90
17968;DHT22;9109;48.050;11.696;2023-01-06T07:33:34;4.90;99.90
17968;DHT22;9109;48.050;11.696;2023-01-06T07:36:37;5.00;99.90
17968;DHT22;9109;48.050;11.696;2023-01-06T07:39:39;5.00;99.90
17968;DHT22;9109;48.050;11.696;2023-01-06T07:42:41;5.00;99.90
17968;DHT22;9109;48.050;11.696;2023-01-06T07:45:45;4.90;99.90
17968;DHT22;9109;48.050;11.696;2023-01-06T07:48:48;4.90;99.90
17968;DHT22;9109;48.050;11.696;2023-01-06T07:51:51;4.90;99.90
17968;DHT22;9109;48.050;11.696;2023-01-06T07:54:53;5.00;99.90
17968;DHT22;9109;48.050;11.696;2023-01-06T07:58:03;4.90;99.90
17968;DHT22;9109;48.050;11.696;2023-01-06T08:01:06;4.90;99.90
17968;DHT22;9109;48.050;11.696;2023-01-06T08:04:08;4.90;99.90
17968;DHT22;9109;48.050;11.696;2023-01-06T08:07:11;5.00;99.90
17968;DHT22;9109;48.050;11.696;2023-01-06T08:10:13;5.00;99.90
17968;DHT22;9109;48.050;11.696;2023-01-06T08:13:15;5.00;99.90
17968;DHT22;9109;48.050;11.696;2023-01-06T08:16:17;5.00;99.90
17968;DHT22;9109;48.050;11.696;2023-01-06T08:19:19;5.00;99.90
17968;DHT22;9109;48.050;11.696;2023-01-06T08:22:23;5.10;99.90
17968;DHT22;9109;48.050;11.696;2023-01-06T08:25:25;5.10;99.90
17968;DHT22;9109;48.050;11.696;2023-01-06T08:28:27;5.10;99.90
17968;DHT22;9109;48.050;11.696;2023-01-06T08:31:29;5.20;99.90
17968;DHT22;9109;48.050;11.696;2023-01-06T08:34:31;5.30;99.90
17968;DHT22;9109;48.050;11.696;2023-01-06T08:37:34;5.30;99.90
17968;DHT22;9109;48.050;11.696;2023-01-06T08:40:45;5.20;99.90
17968;DHT22;9109;48.050;11.696;2023-01-06T08:43:48;5.30;99.90
17968;DHT22;9109;48.050;11.696;2023-01-06T08:46:50;5.30;99.90
17968;DHT22;9109;48.050;11.696;2023-01-06T08:49:52;5.40;99.90
17968;DHT22;9109;48.050;11.696;2023-01-06T08:52:56;5.40;99.90
17968;DHT22;9109;48.050;11.696;2023-01-06T08:56:12;5.50;99.90
17968;DHT22;9109;48.050;11.696;2023-01-06T08:59:15;5.60;99.90
17968;DHT22;9109;48.050;11.696;2023-01-06T09:02:18;5.60;99.90
17968;DHT22;9109;48.050;11.696;2023-01-06T09:05:20;5.60;99.90
17968;DHT22;9109;48.050;11.696;2023-01-06T09:08:25;5.70;99.90
17968;DHT22;9109;48.050;11.696;2023-01-06T09:11:33;5.70;99.90
17968;DHT22;9109;48.050;11.696;2023-01-06T09:17:49;5.80;99.90
17968;DHT22;9109;48.050;11.696;2023-01-06T09:20:51;5.90;99.90
17968;DHT22;9109;48.050;11.696;2023-01-06T09:23:54;6.00;99.90
17968;DHT22;9109;48.050;11.696;2023-01-06T09:26:56;6.00;99.90
17968;DHT22;9109;48.050;11.696;2023-01-06T09:29:58;6.10;99.90
17968;DHT22;9109;48.050;11.696;2023-01-06T09:33:00;6.20;99.90
17968;DHT22;9109;48.050;11.696;2023-01-06T09:36:02;6.30;99.90
17968;DHT22;9109;48.050;11.696;2023-01-06T09:39:06;6.40;99.90
17968;DHT22;9109;48.050;11.696;2023-01-06T09:42:26;6.40;99.90
17968;DHT22;9109;48.050;11.696;2023-01-06T09:45:36;6.60;99.90
17968;DHT22;9109;48.050;11.696;2023-01-06T09:48:43;6.80;99.90
17968;DHT22;9109;48.050;11.696;2023-01-06T09:51:46;6.80;99.90
17968;DHT22;9109;48.050;11.696;2023-01-06T09:54:53;6.90;99.90
17968;DHT22;9109;48.050;11.696;2023-01-06T09:57:59;7.00;99.90
17968;DHT22;9109;48.050;11.696;2023-01-06T10:01:06;7.20;99.90
17968;DHT22;9109;48.050;11.696;2023-01-06T10:04:11;7.30;99.90
17968;DHT22;9109;48.050;11.696;2023-01-06T10:07:21;7.40;99.90
17968;DHT22;9109;48.050;11.696;2023-01-06T10:10:32;7.70;99.90
17968;DHT22;9109;48.050;11.696;2023-01-06T10:13:56;7.90;99.90
17968;DHT22;9109;48.050;11.696;2023-01-06T10:17:17;7.90;99.90
17968;DHT22;9109;48.050;11.696;2023-01-06T10:20:51;8.10;99.90
17968;DHT22;9109;48.050;11.696;2023-01-06T10:24:03;8.20;99.90
17968;DHT22;9109;48.050;11.696;2023-01-06T10:27:19;8.30;99.90
17968;DHT22;9109;48.050;11.696;2023-01-06T10:30:25;8.30;99.90
17968;DHT22;9109;48.050;11.696;2023-01-06T10:33:31;8.50;99.90
17968;DHT22;9109;48.050;11.696;2023-01-06T10:36:39;8.60;99.90
17968;DHT22;9109;48.050;11.696;2023-01-06T10:39:44;8.70;99.90
17968;DHT22;9109;48.050;11.696;2023-01-06T10:42:50;8.80;99.90
17968;DHT22;9109;48.050;11.696;2023-01-06T10:45:56;8.90;99.90
17968;DHT22;9109;48.050;11.696;2023-01-06T10:48:59;9.00;99.90
17968;DHT22;9109;48.050;11.696;2023-01-06T10:52:02;8.90;99.90
17968;DHT22;9109;48.050;11.696;2023-01-06T10:55:04;8.90;99.90
17968;DHT22;9109;48.050;11.696;2023-01-06T10:58:18;9.00;99.90
17968;DHT22;9109;48.050;11.696;2023-01-06T11:01:23;9.10;99.90
17968;DHT22;9109;48.050;11.696;2023-01-06T11:04:32;9.20;99.90
17968;DHT22;9109;48.050;11.696;2023-01-06T11:07:43;9.30;99.90
17968;DHT22;9109;48.050;11.696;2023-01-06T11:10:52;9.30;99.90
17968;DHT22;9109;48.050;11.696;2023-01-06T11:14:03;9.40;99.90
17968;DHT22;9109;48.050;11.696;2023-01-06T11:17:08;9.40;99.90
17968;DHT22;9109;48.050;11.696;2023-01-06T11:20:31;9.30;99.90
17968;DHT22;9109;48.050;11.696;2023-01-06T11:23:35;9.40;99.90
17968;DHT22;9109;48.050;11.696;2023-01-06T11:26:50;9.50;99.90
17968;DHT22;9109;48.050;11.696;2023-01-06T11:29:57;9.60;99.90
17968;DHT22;9109;48.050;11.696;2023-01-06T11:32:59;9.70;99.90
17968;DHT22;9109;48.050;11.696;2023-01-06T11:36:07;9.80;99.90
17968;DHT22;9109;48.050;11.696;2023-01-06T11:39:13;10.00;99.90
17968;DHT22;9109;48.050;11.696;2023-01-06T11:42:17;10.00;99.90
17968;DHT22;9109;48.050;11.696;2023-01-06T11:45:32;10.00;99.90
17968;DHT22;9109;48.050;11.696;2023-01-06T11:48:37;9.90;99.90
17968;DHT22;9109;48.050;11.696;2023-01-06T11:51:46;9.80;99.90
17968;DHT22;9109;48.050;11.696;2023-01-06T11:54:58;9.90;99.90
17968;DHT22;9109;48.050;11.696;2023-01-06T11:58:04;10.00;99.90
17968;DHT22;9109;48.050;11.696;2023-01-06T12:01:16;10.00;99.90
17968;DHT22;9109;48.050;11.696;2023-01-06T12:04:29;10.10;99.90
17968;DHT22;9109;48.050;11.696;2023-01-06T12:07:37;10.10;99.90
17968;DHT22;9109;48.050;11.696;2023-01-06T12:10:42;10.20;99.90
17968;DHT22;9109;48.050;11.696;2023-01-06T12:13:45;10.20;99.90
17968;DHT22;9109;48.050;11.696;2023-01-06T12:17:02;10.10;99.90
17968;DHT22;9109;48.050;11.696;2023-01-06T12:20:09;10.00;99.90
17968;DHT22;9109;48.050;11.696;2023-01-06T12:23:19;9.90;99.90
17968;DHT22;9109;48.050;11.696;2023-01-06T12:26:24;9.90;99.90
17968;DHT22;9109;48.050;11.696;2023-01-06T12:29:26;9.90;99.90
17968;DHT22;9109;48.050;11.696;2023-01-06T12:32:37;10.00;99.90
17968;DHT22;9109;48.050;11.696;2023-01-06T12:35:43;10.00;99.90
17968;DHT22;9109;48.050;11.696;2023-01-06T12:38:51;9.90;99.90
17968;DHT22;9109;48.050;11.696;2023-01-06T12:41:57;9.90;99.90
17968;DHT22;9109;48.050;11.696;2023-01-06T12:45:03;10.00;99.90
17968;DHT22;9109;48.050;11.696;2023-01-06T12:48:16;10.00;99.90
17968;DHT22;9109;48.050;11.696;2023-01-06T12:51:22;10.00;99.90
17968;DHT22;9109;48.050;11.696;2023-01-06T12:54:27;10.00;99.90
17968;DHT22;9109;48.050;11.696;2023-01-06T12:57:48;10.20;99.90
17968;DHT22;9109;48.050;11.696;2023-01-06T13:00:52;10.20;99.90
17968;DHT22;9109;48.050;11.696;2023-01-06T13:07:38;10.30;99.90
17968;DHT22;9109;48.050;11.696;2023-01-06T13:10:44;10.20;99.90
17968;DHT22;9109;48.050;11.696;2023-01-06T13:14:05;10.30;99.90
17968;DHT22;9109;48.050;11.696;2023-01-06T13:17:17;10.30;99.90
17968;DHT22;9109;48.050;11.696;2023-01-06T13:20:27;10.30;99.90
17968;DHT22;9109;48.050;11.696;2023-01-06T13:23:51;10.40;99.90
17968;DHT22;9109;48.050;11.696;2023-01-06T13:27:38;10.50;99.90
17968;DHT22;9109;48.050;11.696;2023-01-06T13:34:59;10.40;99.90
17968;DHT22;9109;48.050;11.696;2023-01-06T13:38:17;10.50;99.90
17968;DHT22;9109;48.050;11.696;2023-01-06T13:41:25;10.40;99.90
17968;DHT22;9109;48.050;11.696;2023-01-06T13:44:35;10.50;99.90
17968;DHT22;9109;48.050;11.696;2023-01-06T13:47:38;10.50;99.90
17968;DHT22;9109;48.050;11.696;2023-01-06T13:50:41;10.50;99.90
17968;DHT22;9109;48.050;11.696;2023-01-06T13:53:45;10.40;99.90
17968;DHT22;9109;48.050;11.696;2023-01-06T13:57:16;10.30;99.90
17968;DHT22;9109;48.050;11.696;2023-01-06T14:00:21;10.30;99.90
17968;DHT22;9109;48.050;11.696;2023-01-06T14:03:24;10.30;99.90
17968;DHT22;9109;48.050;11.696;2023-01-06T14:06:44;10.20;99.90
17968;DHT22;9109;48.050;11.696;2023-01-06T14:09:48;10.20;99.90
17968;DHT22;9109;48.050;11.696;2023-01-06T14:12:50;10.20;99.90
17968;DHT22;9109;48.050;11.696;2023-01-06T14:15:54;10.20;99.90
17968;DHT22;9109;48.050;11.696;2023-01-06T14:19:04;10.30;99.90
17968;DHT22;9109;48.050;11.696;2023-01-06T14:22:15;10.20;99.90
17968;DHT22;9109;48.050;11.696;2023-01-06T14:25:22;10.30;99.90
17968;DHT22;9109;48.050;11.696;2023-01-06T14:28:27;10.30;99.90
17968;DHT22;9109;48.050;11.696;2023-01-06T14:31:37;10.30;99.90
17968;DHT22;9109;48.050;11.696;2023-01-06T14:34:41;10.30;99.90
17968;DHT22;9109;48.050;11.696;2023-01-06T14:37:46;10.20;99.90
17968;DHT22;9109;48.050;11.696;2023-01-06T14:40:55;10.10;99.90
17968;DHT22;9109;48.050;11.696;2023-01-06T14:44:01;9.90;99.90
17968;DHT22;9109;48.050;11.696;2023-01-06T14:47:07;9.70;99.90
17968;DHT22;9109;48.050;11.696;2023-01-06T14:50:14;9.60;99.90
17968;DHT22;9109;48.050;11.696;2023-01-06T14:53:22;9.40;99.90
17968;DHT22;9109;48.050;11.696;2023-01-06T14:56:28;9.40;99.90
17968;DHT22;9109;48.050;11.696;2023-01-06T14:59:30;9.40;99.90
17968;DHT22;9109;48.050;11.696;2023-01-06T15:02:33;9.40;99.90
17968;DHT22;9109;48.050;11.696;2023-01-06T15:05:36;9.30;99.90
17968;DHT22;9109;48.050;11.696;2023-01-06T15:08:39;9.30;99.90
17968;DHT22;9109;48.050;11.696;2023-01-06T15:11:42;9.30;99.90
17968;DHT22;9109;48.050;11.696;2023-01-06T15:14:44;9.30;99.90
17968;DHT22;9109;48.050;11.696;2023-01-06T15:17:46;9.30;99.90
17968;DHT22;9109;48.050;11.696;2023-01-06T15:20:49;9.30;99.90
17968;DHT22;9109;48.050;11.696;2023-01-06T15:23:52;9.30;99.90
17968;DHT22;9109;48.050;11.696;2023-01-06T15:27:10;9.30;99.90
17968;DHT22;9109;48.050;11.696;2023-01-06T15:30:21;9.30;99.90
17968;DHT22;9109;48.050;11.696;2023-01-06T15:33:26;9.30;99.90
17968;DHT22;9109;48.050;11.696;2023-01-06T15:36:31;9.30;99.90
17968;DHT22;9109;48.050;11.696;2023-01-06T15:39:37;9.20;99.90
17968;DHT22;9109;48.050;11.696;2023-01-06T15:42:41;9.20;99.90
17968;DHT22;9109;48.050;11.696;2023-01-06T15:45:55;9.10;99.90
17968;DHT22;9109;48.050;11.696;2023-01-06T15:48:57;9.00;99.90
17968;DHT22;9109;48.050;11.696;2023-01-06T15:52:02;8.90;99.90
17968;DHT22;9109;48.050;11.696;2023-01-06T15:55:16;8.90;99.90
17968;DHT22;9109;48.050;11.696;2023-01-06T15:58:21;8.90;99.90
17968;DHT22;9109;48.050;11.696;2023-01-06T16:01:24;8.90;99.90
17968;DHT22;9109;48.050;11.696;2023-01-06T16:04:26;8.90;99.90
17968;DHT22;9109;48.050;11.696;2023-01-06T16:07:37;8.90;99.90
17968;DHT22;9109;48.050;11.696;2023-01-06T16:10:40;9.00;99.90
17968;DHT22;9109;48.050;11.696;2023-01-06T16:13:56;9.00;99.90
17968;DHT22;9109;48.050;11.696;2023-01-06T16:17:07;9.00;99.90
17968;DHT22;9109;48.050;11.696;2023-01-06T16:20:20;8.90;99.90
17968;DHT22;9109;48.050;11.696;2023-01-06T16:23:33;8.90;99.90
17968;DHT22;9109;48.050;11.696;2023-01-06T16:26:41;8.80;99.90
17968;DHT22;9109;48.050;11.696;2023-01-06T16:29:46;8.80;99.90
17968;DHT22;9109;48.050;11.696;2023-01-06T16:32:49;8.80;99.90
17968;DHT22;9109;48.050;11.696;2023-01-06T16:35:52;8.80;99.90
17968;DHT22;9109;48.050;11.696;2023-01-06T16:38:54;8.80;99.90
17968;DHT22;9109;48.050;11.696;2023-01-06T16:42:19;8.80;99.90
17968;DHT22;9109;48.050;11.696;2023-01-06T16:45:42;8.70;99.90
17968;DHT22;9109;48.050;11.696;2023-01-06T16:48:49;8.70;99.90
17968;DHT22;9109;48.050;11.696;2023-01-06T16:51:53;8.70;99.90
17968;DHT22;9109;48.050;11.696;2023-01-06T16:54:56;8.60;99.90
17968;DHT22;9109;48.050;11.696;2023-01-06T16:57:58;8.70;99.90
17968;DHT22;9109;48.050;11.696;2023-01-06T17:01:10;8.70;99.90
17968;DHT22;9109;48.050;11.696;2023-01-06T17:04:14;8.70;99.90
17968;DHT22;9109;48.050;11.696;2023-01-06T17:07:16;8.70;99.90
17968;DHT22;9109;48.050;11.696;2023-01-06T17:10:20;8.70;99.90
17968;DHT22;9109;48.050;11.696;2023-01-06T17:13:22;8.60;99.90
17968;DHT22;9109;48.050;11.696;2023-01-06T17:16:39;8.60;99.90
17968;DHT22;9109;48.050;11.696;2023-01-06T17:19:41;8.70;99.90
17968;DHT22;9109;48.050;11.696;2023-01-06T17:22:43;8.70;99.90
17968;DHT22;9109;48.050;11.696;2023-01-06T17:25:58;8.70;99.90
17968;DHT22;9109;48.050;11.696;2023-01-06T17:29:09;8.70;99.90
17968;DHT22;9109;48.050;11.696;2023-01-06T17:32:18;8.60;99.90
17968;DHT22;9109;48.050;11.696;2023-01-06T17:35:24;8.70;99.90
17968;DHT22;9109;48.050;11.696;2023-01-06T17:38:27;8.60;99.90
17968;DHT22;9109;48.050;11.696;2023-01-06T17:41:30;8.60;99.90
17968;DHT22;9109;48.050;11.696;2023-01-06T17:44:35;8.60;99.90
17968;DHT22;9109;48.050;11.696;2023-01-06T17:47:43;8.60;99.90
17968;DHT22;9109;48.050;11.696;2023-01-06T17:50:48;8.50;99.90
17968;DHT22;9109;48.050;11.696;2023-01-06T17:53:51;8.50;99.90
17968;DHT22;9109;48.050;11.696;2023-01-06T17:57:13;8.40;99.90
17968;DHT22;9109;48.050;11.696;2023-01-06T18:00:20;8.40;99.90
17968;DHT22;9109;48.050;11.696;2023-01-06T18:03:25;8.30;99.90
17968;DHT22;9109;48.050;11.696;2023-01-06T18:06:28;8.30;99.90
17968;DHT22;9109;48.050;11.696;2023-01-06T18:09:37;8.20;99.90
17968;DHT22;9109;48.050;11.696;2023-01-06T18:12:39;8.20;99.90
17968;DHT22;9109;48.050;11.696;2023-01-06T18:15:42;8.20;99.90
17968;DHT22;9109;48.050;11.696;2023-01-06T18:18:46;8.10;99.90
17968;DHT22;9109;48.050;11.696;2023-01-06T18:21:48;8.10;99.90
17968;DHT22;9109;48.050;11.696;2023-01-06T18:24:53;8.00;99.90
17968;DHT22;9109;48.050;11.696;2023-01-06T18:27:55;7.90;99.90
17968;DHT22;9109;48.050;11.696;2023-01-06T18:31:01;7.90;99.90
17968;DHT22;9109;48.050;11.696;2023-01-06T18:34:23;7.80;99.90
17968;DHT22;9109;48.050;11.696;2023-01-06T18:37:27;7.70;99.90
17968;DHT22;9109;48.050;11.696;2023-01-06T18:40:30;7.70;99.90
17968;DHT22;9109;48.050;11.696;2023-01-06T18:43:32;7.70;99.90
17968;DHT22;9109;48.050;11.696;2023-01-06T18:46:35;7.70;99.90
17968;DHT22;9109;48.050;11.696;2023-01-06T18:49:39;7.80;99.90
17968;DHT22;9109;48.050;11.696;2023-01-06T18:52:43;7.70;99.90
17968;DHT22;9109;48.050;11.696;2023-01-06T18:55:46;7.70;99.90
17968;DHT22;9109;48.050;11.696;2023-01-06T18:58:52;7.70;99.90
17968;DHT22;9109;48.050;11.696;2023-01-06T19:01:54;7.70;99.90
17968;DHT22;9109;48.050;11.696;2023-01-06T19:04:57;7.70;99.90
17968;DHT22;9109;48.050;11.696;2023-01-06T19:08:05;7.60;99.90
17968;DHT22;9109;48.050;11.696;2023-01-06T19:11:14;7.60;99.90
17968;DHT22;9109;48.050;11.696;2023-01-06T19:14:17;7.60;99.90
17968;DHT22;9109;48.050;11.696;2023-01-06T19:17:23;7.60;99.90
17968;DHT22;9109;48.050;11.696;2023-01-06T19:20:29;7.60;99.90
17968;DHT22;9109;48.050;11.696;2023-01-06T19:23:34;7.60;99.90
17968;DHT22;9109;48.050;11.696;2023-01-06T19:26:39;7.60;99.90
17968;DHT22;9109;48.050;11.696;2023-01-06T19:29:41;7.70;99.90
17968;DHT22;9109;48.050;11.696;2023-01-06T19:32:43;7.70;99.90
17968;DHT22;9109;48.050;11.696;2023-01-06T19:35:46;7.70;99.90
17968;DHT22;9109;48.050;11.696;2023-01-06T19:38:49;7.70;99.90
17968;DHT22;9109;48.050;11.696;2023-01-06T19:41:52;7.70;99.90
17968;DHT22;9109;48.050;11.696;2023-01-06T19:44:57;7.80;99.90
17968;DHT22;9109;48.050;11.696;2023-01-06T19:48:00;7.80;99.90
17968;DHT22;9109;48.050;11.696;2023-01-06T19:51:17;7.80;99.90
17968;DHT22;9109;48.050;11.696;2023-01-06T19:54:25;7.80;99.90
17968;DHT22;9109;48.050;11.696;2023-01-06T19:57:33;7.80;99.90
17968;DHT22;9109;48.050;11.696;2023-01-06T20:00:41;7.80;99.90
17968;DHT22;9109;48.050;11.696;2023-01-06T20:03:45;7.80;99.90
17968;DHT22;9109;48.050;11.696;2023-01-06T20:06:49;7.80;99.90
17968;DHT22;9109;48.050;11.696;2023-01-06T20:09:51;7.80;99.90
17968;DHT22;9109;48.050;11.696;2023-01-06T20:12:53;7.80;99.90
17968;DHT22;9109;48.050;11.696;2023-01-06T20:15:55;7.80;99.90
17968;DHT22;9109;48.050;11.696;2023-01-06T20:18:57;7.70;99.90
17968;DHT22;9109;48.050;11.696;2023-01-06T20:22:00;7.70;99.90
17968;DHT22;9109;48.050;11.696;2023-01-06T20:25:02;7.70;99.90
17968;DHT22;9109;48.050;11.696;2023-01-06T20:28:04;7.70;99.90
17968;DHT22;9109;48.050;11.696;2023-01-06T20:31:06;7.70;99.90
17968;DHT22;9109;48.050;11.696;2023-01-06T20:34:08;7.60;99.90
17968;DHT22;9109;48.050;11.696;2023-01-06T20:37:11;7.60;99.90
17968;DHT22;9109;48.050;11.696;2023-01-06T20:40:14;7.60;99.90
17968;DHT22;9109;48.050;11.696;2023-01-06T20:43:17;7.70;99.90
17968;DHT22;9109;48.050;11.696;2023-01-06T20:46:19;7.70;99.90
17968;DHT22;9109;48.050;11.696;2023-01-06T20:49:21;7.60;99.90
17968;DHT22;9109;48.050;11.696;2023-01-06T20:52:25;7.60;99.90
17968;DHT22;9109;48.050;11.696;2023-01-06T20:55:26;7.60;99.90
17968;DHT22;9109;48.050;11.696;2023-01-06T20:58:28;7.60;99.90
17968;DHT22;9109;48.050;11.696;2023-01-06T21:01:30;7.60;99.90
17968;DHT22;9109;48.050;11.696;2023-01-06T21:04:32;7.50;99.90
17968;DHT22;9109;48.050;11.696;2023-01-06T21:07:37;7.50;99.90
17968;DHT22;9109;48.050;11.696;2023-01-06T21:10:39;7.50;99.90
17968;DHT22;9109;48.050;11.696;2023-01-06T21:13:41;7.50;99.90
17968;DHT22;9109;48.050;11.696;2023-01-06T21:16:43;7.40;99.90
17968;DHT22;9109;48.050;11.696;2023-01-06T21:19:45;7.50;99.90
17968;DHT22;9109;48.050;11.696;2023-01-06T21:22:49;7.50;99.90
17968;DHT22;9109;48.050;11.696;2023-01-06T21:25:51;7.50;99.90
17968;DHT22;9109;48.050;11.696;2023-01-06T21:28:53;7.50;99.90
17968;DHT22;9109;48.050;11.696;2023-01-06T21:31:55;7.50;99.90
17968;DHT22;9109;48.050;11.696;2023-01-06T21:34:57;7.60;99.90
17968;DHT22;9109;48.050;11.696;2023-01-06T21:38:00;7.60;99.90
17968;DHT22;9109;48.050;11.696;2023-01-06T21:41:02;7.60;99.90
17968;DHT22;9109;48.050;11.696;2023-01-06T21:44:25;7.60;99.90
17968;DHT22;9109;48.050;11.696;2023-01-06T21:47:26;7.60;99.90
17968;DHT22;9109;48.050;11.696;2023-01-06T21:50:29;7.70;99.90
17968;DHT22;9109;48.050;11.696;2023-01-06T21:53:33;7.70;99.90
17968;DHT22;9109;48.050;11.696;2023-01-06T21:56:35;7.70;99.90
17968;DHT22;9109;48.050;11.696;2023-01-06T21:59:37;7.60;99.90
17968;DHT22;9109;48.050;11.696;2023-01-06T22:02:39;7.60;99.90
17968;DHT22;9109;48.050;11.696;2023-01-06T22:05:41;7.60;99.90
17968;DHT22;9109;48.050;11.696;2023-01-06T22:08:46;7.60;99.90
17968;DHT22;9109;48.050;11.696;2023-01-06T22:11:49;7.60;99.90
17968;DHT22;9109;48.050;11.696;2023-01-06T22:14:52;7.60;99.90
17968;DHT22;9109;48.050;11.696;2023-01-06T22:17:57;7.60;99.90
17968;DHT22;9109;48.050;11.696;2023-01-06T22:21:01;7.60;99.90
17968;DHT22;9109;48.050;11.696;2023-01-06T22:24:07;7.50;99.90
17968;DHT22;9109;48.050;11.696;2023-01-06T22:27:10;7.50;99.90
17968;DHT22;9109;48.050;11.696;2023-01-06T22:30:12;7.50;99.90
17968;DHT22;9109;48.050;11.696;2023-01-06T22:33:14;7.50;99.90
17968;DHT22;9109;48.050;11.696;2023-01-06T22:36:17;7.50;99.90
17968;DHT22;9109;48.050;11.696;2023-01-06T22:39:21;7.50;99.90
17968;DHT22;9109;48.050;11.696;2023-01-06T22:42:23;7.50;99.90
17968;DHT22;9109;48.050;11.696;2023-01-06T22:45:25;7.40;99.90
17968;DHT22;9109;48.050;11.696;2023-01-06T22:48:26;7.50;99.90
17968;DHT22;9109;48.050;11.696;2023-01-06T22:51:28;7.60;99.90
17968;DHT22;9109;48.050;11.696;2023-01-06T22:54:33;7.60;99.90
17968;DHT22;9109;48.050;11.696;2023-01-06T22:57:34;7.60;99.90
17968;DHT22;9109;48.050;11.696;2023-01-06T23:00:36;7.60;99.90
17968;DHT22;9109;48.050;11.696;2023-01-06T23:03:38;7.60;99.90
17968;DHT22;9109;48.050;11.696;2023-01-06T23:06:40;7.60;99.90
17968;DHT22;9109;48.050;11.696;2023-01-06T23:09:44;7.60;99.90
17968;DHT22;9109;48.050;11.696;2023-01-06T23:12:46;7.60;99.90
17968;DHT22;9109;48.050;11.696;2023-01-06T23:15:48;7.60;99.90
17968;DHT22;9109;48.050;11.696;2023-01-06T23:18:50;7.60;99.90
17968;DHT22;9109;48.050;11.696;2023-01-06T23:21:52;7.70;99.90
17968;DHT22;9109;48.050;11.696;2023-01-06T23:24:55;7.70;99.90
17968;DHT22;9109;48.050;11.696;2023-01-06T23:27:57;7.70;99.90
17968;DHT22;9109;48.050;11.696;2023-01-06T23:31:03;7.70;99.90
17968;DHT22;9109;48.050;11.696;2023-01-06T23:34:07;7.70;99.90
17968;DHT22;9109;48.050;11.696;2023-01-06T23:37:09;7.70;99.90
17968;DHT22;9109;48.050;11.696;2023-01-06T23:40:12;7.70;99.90
17968;DHT22;9109;48.050;11.696;2023-01-06T23:43:14;7.60;99.90
17968;DHT22;9109;48.050;11.696;2023-01-06T23:46:18;7.60;99.90
17968;DHT22;9109;48.050;11.696;2023-01-06T23:49:20;7.60;99.90
17968;DHT22;9109;48.050;11.696;2023-01-06T23:52:22;7.60;99.90
17968;DHT22;9109;48.050;11.696;2023-01-06T23:55:25;7.60;99.90
17968;DHT22;9109;48.050;11.696;2023-01-06T23:58:29;7.60;99.90
